createdAt,value
2019-05-22T00:00:01.152Z,13.8
2019-05-22T00:05:00.497Z,14.6
2019-05-22T00:10:00.459Z,14.9
2019-05-22T00:15:00.698Z,15.5
2019-05-22T00:20:00.872Z,15.3
2019-05-22T00:25:00.510Z,15.0
2019-05-22T00:30:00.415Z,14.0
2019-05-22T00:35:00.596Z,13.7
2019-05-22T00:40:00.938Z,13.2
2019-05-22T00:45:00.586Z,13.1
2019-05-22T00:50:00.455Z,13.9
2019-05-22T00:55:00.521Z,15.4
2019-05-22T01:00:00.459Z,16.7
2019-05-22T01:05:00.535Z,17.4
2019-05-22T01:10:00.544Z,18.0
2019-05-22T01:15:00.590Z,17.3
2019-05-22T01:20:00.464Z,15.4
2019-05-22T01:25:00.870Z,13.6
2019-05-22T01:30:00.474Z,12.7
2019-05-22T01:40:00.569Z,12.8
2019-05-22T01:45:07.110Z,14.2
2019-05-22T01:50:00.479Z,15.3
2019-05-22T01:55:00.706Z,15.3
2019-05-22T02:00:00.485Z,15.0
2019-05-22T02:05:00.548Z,14.3
2019-05-22T02:10:00.493Z,14.2
2019-05-22T02:15:00.620Z,14.2
2019-05-22T02:20:00.494Z,14.8
2019-05-22T02:25:00.559Z,15.8
2019-05-22T02:30:00.528Z,17.1
2019-05-22T02:35:00.566Z,17.2
2019-05-22T02:40:00.571Z,17.7
2019-05-22T02:45:00.637Z,18.4
2019-05-22T02:50:00.586Z,17.2
2019-05-22T02:55:00.616Z,16.6
2019-05-22T03:00:00.515Z,16.8
2019-05-22T03:05:00.618Z,16.0
2019-05-22T03:10:01.050Z,15.9
2019-05-22T03:15:00.622Z,16.6
2019-05-22T03:20:01.157Z,17.0
2019-05-22T03:25:00.630Z,17.3
2019-05-22T03:30:00.571Z,18.6
2019-05-22T03:35:00.712Z,20.3
2019-05-22T03:40:02.390Z,21.8
2019-05-22T03:45:00.662Z,23.3
2019-05-22T03:50:00.535Z,23.8
2019-05-22T03:55:00.608Z,24.2
2019-05-22T04:00:00.548Z,24.6
2019-05-22T04:05:00.628Z,24.8
2019-05-22T04:10:00.566Z,26.1
2019-05-22T04:15:00.675Z,28.7
2019-05-22T04:20:00.564Z,30.5
2019-05-22T04:30:00.715Z,32.0
2019-05-22T04:40:00.693Z,30.2
2019-05-22T05:00:00.952Z,28.4
2019-05-22T05:05:02.074Z,26.4
2019-05-22T05:10:00.805Z,25.5
2019-05-22T05:15:00.815Z,25.4
2019-05-22T05:20:00.812Z,25.1
2019-05-22T05:25:00.883Z,24.1
2019-05-22T05:30:00.815Z,24.1
2019-05-22T05:40:00.896Z,23.1
2019-05-22T06:00:01.351Z,21.0
2019-05-22T06:05:01.307Z,22.2
2019-05-22T06:10:01.318Z,22.6
2019-05-22T06:30:00.835Z,22.2
2019-05-22T06:35:01.303Z,23.6
2019-05-22T06:40:00.546Z,23.9
2019-05-22T06:45:00.658Z,23.1
2019-05-22T06:50:00.567Z,22.6
2019-05-22T06:55:00.619Z,23.4
2019-05-22T07:00:15.303Z,22.9
2019-05-22T07:05:00.837Z,23.5
2019-05-22T07:10:00.580Z,24.9
2019-05-22T07:15:00.666Z,26.4
2019-05-22T07:30:01.208Z,27.0
2019-05-22T07:35:01.764Z,25.6
2019-05-22T07:40:01.078Z,24.7
2019-05-22T07:45:01.231Z,24.7
2019-05-22T07:50:01.125Z,25.0
2019-05-22T07:55:01.152Z,25.3
2019-05-22T08:00:01.131Z,25.8
2019-05-22T08:05:01.086Z,27.1
2019-05-22T08:10:01.153Z,26.6
2019-05-22T08:15:01.219Z,25.4
2019-05-22T08:20:01.089Z,23.7
2019-05-22T08:25:01.160Z,22.6
2019-05-22T08:30:01.125Z,20.6
2019-05-22T08:35:01.096Z,20.2
2019-05-22T08:40:01.227Z,19.8
2019-05-22T08:45:01.230Z,19.6
2019-05-22T08:50:01.115Z,18.7
2019-05-22T08:55:01.175Z,19.1
2019-05-22T09:00:01.112Z,18.5
2019-05-22T09:05:01.170Z,18.0
2019-05-22T09:10:01.115Z,16.8
2019-05-22T09:15:01.114Z,16.4
2019-05-22T09:20:01.118Z,15.2
2019-05-22T09:25:01.198Z,15.0
2019-05-22T09:30:01.138Z,14.4
2019-05-22T09:35:02.028Z,14.6
2019-05-22T09:40:01.124Z,14.2
2019-05-22T09:45:01.196Z,13.7
2019-05-22T09:50:01.179Z,13.2
2019-05-22T09:55:01.275Z,12.8
2019-05-22T10:00:01.171Z,13.0
2019-05-22T10:05:01.206Z,12.6
2019-05-22T10:10:01.185Z,13.0
2019-05-22T10:15:01.713Z,13.0
2019-05-22T10:20:01.142Z,13.4
2019-05-22T10:30:01.180Z,12.6
2019-05-22T10:35:01.212Z,11.7
2019-05-22T10:40:01.151Z,11.2
2019-05-22T10:45:01.307Z,11.1
2019-05-22T10:50:01.158Z,11.0
2019-05-22T10:55:01.281Z,11.1
2019-05-22T11:00:01.368Z,11.1
2019-05-22T11:05:01.270Z,11.0
2019-05-22T11:15:01.208Z,10.7
2019-05-22T11:20:01.191Z,10.3
2019-05-22T11:25:01.328Z,10.2
2019-05-22T11:30:01.256Z,10.4
2019-05-22T11:35:01.533Z,10.0
2019-05-22T11:40:01.215Z,9.6
2019-05-22T11:45:01.265Z,9.8
2019-05-22T11:50:01.220Z,9.6
2019-05-22T11:55:01.324Z,9.1
2019-05-22T12:00:01.439Z,8.9
2019-05-22T12:05:01.286Z,9.3
2019-05-22T12:10:01.288Z,9.3
2019-05-22T12:15:01.421Z,9.2
2019-05-22T12:20:01.241Z,9.2
2019-05-22T12:25:01.284Z,9.6
2019-05-22T12:30:01.236Z,9.5
2019-05-22T12:35:01.311Z,8.8
2019-05-22T12:40:01.224Z,9.3
2019-05-22T12:45:01.363Z,9.5
2019-05-22T12:50:01.303Z,9.2
2019-05-22T13:00:03.267Z,9.9
2019-05-22T13:05:01.314Z,9.9
2019-05-22T13:10:01.311Z,9.5
2019-05-22T13:15:11.039Z,9.0
2019-05-22T13:20:01.263Z,8.3
2019-05-22T13:25:01.344Z,7.9
2019-05-22T13:30:01.228Z,7.2
2019-05-22T13:35:01.419Z,7.1
2019-05-22T13:40:01.224Z,7.2
2019-05-22T13:45:01.228Z,7.4
2019-05-22T13:50:01.239Z,6.9
2019-05-22T13:55:01.357Z,7.0
2019-05-22T14:00:01.232Z,6.6
2019-05-22T14:05:01.312Z,6.4
2019-05-22T14:10:01.597Z,6.3
2019-05-22T14:15:01.365Z,6.4
2019-05-22T14:20:01.245Z,6.5
2019-05-22T14:25:01.415Z,6.7
2019-05-22T14:30:01.381Z,6.4
2019-05-22T14:35:01.379Z,6.2
2019-05-22T14:40:01.273Z,6.1
2019-05-22T14:45:01.382Z,5.6
2019-05-22T14:50:06.261Z,5.2
2019-05-22T14:55:06.391Z,5.1
2019-05-22T15:00:01.337Z,5.0
2019-05-22T15:05:01.337Z,4.8
2019-05-22T15:10:01.411Z,4.8
2019-05-22T15:15:01.680Z,4.9
2019-05-22T15:25:01.423Z,4.9
2019-05-22T15:30:01.269Z,4.8
2019-05-22T15:35:01.373Z,5.0
2019-05-22T15:40:01.225Z,4.8
2019-05-22T15:45:06.394Z,4.6
2019-05-22T15:50:01.291Z,4.6
2019-05-22T15:55:01.611Z,4.8
2019-05-22T16:00:06.339Z,4.6
2019-05-22T16:20:01.222Z,5.8
2019-05-22T16:25:01.251Z,4.9
2019-05-22T16:30:01.119Z,4.6
2019-05-22T16:35:01.106Z,4.7
2019-05-22T16:40:01.224Z,4.6
2019-05-22T16:45:01.224Z,4.7
2019-05-22T16:50:01.126Z,4.8
2019-05-22T16:55:01.165Z,4.8
2019-05-22T17:00:01.113Z,4.7
2019-05-22T17:05:02.564Z,4.4
2019-05-22T17:10:01.117Z,4.2
2019-05-22T17:15:01.186Z,4.2
2019-05-22T17:20:01.108Z,4.2
2019-05-22T17:25:01.199Z,4.1
2019-05-22T17:30:01.120Z,4.4
2019-05-22T17:35:01.249Z,4.2
2019-05-22T17:40:01.492Z,4.4
2019-05-22T17:45:01.188Z,4.4
2019-05-22T17:55:01.260Z,4.2
2019-05-22T18:00:01.139Z,4.3
2019-05-22T18:05:01.262Z,3.7
2019-05-22T18:10:01.184Z,3.5
2019-05-22T18:15:01.263Z,3.5
2019-05-22T18:20:01.271Z,3.6
2019-05-22T18:25:01.300Z,3.6
2019-05-22T18:30:01.172Z,3.8
2019-05-22T18:35:01.275Z,4.0
2019-05-22T18:45:01.221Z,4.0
2019-05-22T18:50:01.147Z,4.0
2019-05-22T18:55:01.232Z,3.9
2019-05-22T19:00:06.205Z,4.0
2019-05-22T19:10:01.161Z,4.2
2019-05-22T19:15:01.296Z,4.4
2019-05-22T19:20:01.236Z,5.0
2019-05-22T19:25:01.511Z,5.3
2019-05-22T19:30:01.187Z,5.7
2019-05-22T19:40:01.172Z,6.1
2019-05-22T19:45:01.302Z,5.8
2019-05-22T19:50:01.179Z,6.0
2019-05-22T19:55:01.242Z,6.2
2019-05-22T20:00:01.197Z,6.2
2019-05-22T20:05:01.308Z,5.9
2019-05-22T20:10:01.190Z,5.8
2019-05-22T20:15:01.493Z,5.5
2019-05-22T20:20:01.187Z,5.4
2019-05-22T20:25:01.253Z,5.2
2019-05-22T20:30:01.196Z,5.4
2019-05-22T20:40:01.261Z,5.6
2019-05-22T20:45:01.331Z,5.8
2019-05-22T20:50:01.293Z,6.4
2019-05-22T20:55:01.267Z,6.7
2019-05-22T21:00:01.208Z,6.9
2019-05-22T21:05:01.424Z,7.0
2019-05-22T21:10:01.214Z,6.8
2019-05-22T21:15:01.348Z,6.6
2019-05-22T21:20:01.218Z,6.0
2019-05-22T21:30:01.348Z,6.0
2019-05-22T21:35:01.286Z,6.3
2019-05-22T21:40:01.224Z,6.3
2019-05-22T21:45:01.352Z,6.5
2019-05-22T21:50:01.362Z,6.9
2019-05-22T21:55:01.298Z,7.2
2019-05-22T22:00:01.232Z,7.2
2019-05-22T22:05:01.378Z,7.6
2019-05-22T22:10:01.294Z,7.5
2019-05-22T22:15:01.369Z,7.4
2019-05-22T22:25:01.549Z,7.1
2019-05-22T22:30:01.238Z,7.1
2019-05-22T22:35:01.314Z,7.5
2019-05-22T22:40:01.254Z,7.7
2019-05-22T22:45:01.384Z,8.4
2019-05-22T22:50:01.334Z,8.4
2019-05-22T22:55:06.253Z,9.0
2019-05-22T23:00:01.590Z,9.4
2019-05-22T23:05:01.322Z,10.5
2019-05-22T23:10:01.271Z,10.7
2019-05-22T23:15:01.306Z,11.3
2019-05-22T23:20:01.250Z,11.4
2019-05-22T23:40:00.545Z,13.6
2019-05-22T23:45:00.490Z,13.8
2019-05-22T23:50:00.415Z,13.5
2019-05-22T23:55:01.056Z,13.2
